Time;durP1;ratioP1;P1;durP2;ratioP2;P2;SDS_P1;SDS_P2;PMS_P1;PMS_P2;Temp;Humidity;BMP_temperature;BMP_pressure;BME280_temperature;BME280_humidity;BME280_pressure;Samples;Min_cycle;Max_cycle;Signal;HPM_P1;HPM_P2
2022/12/25 00:02:08;;;;;;;;;;;4.90;99.90;;;;;;5073657;28;20328;-63
2022/12/25 00:04:34;;;;;;;;;;;4.80;99.90;;;;;;5073602;28;19908;-63
2022/12/25 00:06:59;;;;;;;;;;;4.70;99.90;;;;;;5055667;28;19912;-63
2022/12/25 00:09:25;;;;;;;;;;;4.70;99.90;;;;;;5073569;28;19908;-64
2022/12/25 00:11:50;;;;;;;;;;;4.60;99.90;;;;;;5073388;28;19920;-64
2022/12/25 00:14:16;;;;;;;;;;;4.60;99.90;;;;;;5073539;28;19912;-63
2022/12/25 00:16:41;;;;;;;;;;;4.70;99.90;;;;;;5073477;28;20289;-63
2022/12/25 00:19:07;;;;;;;;;;;4.70;99.90;;;;;;5073717;28;19947;-64
2022/12/25 00:21:32;;;;;;;;;;;4.70;99.90;;;;;;5073690;28;19916;-64
2022/12/25 00:23:58;;;;;;;;;;;4.70;99.90;;;;;;5073414;28;19909;-64
2022/12/25 00:26:24;;;;;;;;;;;4.70;99.90;;;;;;5073637;28;20400;-63
2022/12/25 00:28:52;;;;;;;;;;;4.70;99.90;;;;;;5073676;28;20282;-64
2022/12/25 00:31:17;;;;;;;;;;;4.80;99.90;;;;;;5073272;28;19912;-64
2022/12/25 00:33:44;;;;;;;;;;;4.80;99.90;;;;;;5076774;28;19958;-64
2022/12/25 00:36:10;;;;;;;;;;;4.90;99.90;;;;;;5077384;28;19916;-64
2022/12/25 00:38:36;;;;;;;;;;;4.90;99.90;;;;;;5059344;28;20340;-64
2022/12/25 00:41:06;;;;;;;;;;;5.10;99.90;;;;;;5077521;28;19908;-64
2022/12/25 00:43:31;;;;;;;;;;;5.10;99.90;;;;;;5077477;28;19931;-64
2022/12/25 00:45:58;;;;;;;;;;;5.10;99.90;;;;;;5077154;28;19908;-64
2022/12/25 00:48:24;;;;;;;;;;;5.00;99.90;;;;;;5077128;28;19966;-64
2022/12/25 00:50:53;;;;;;;;;;;5.00;99.90;;;;;;5077283;28;20450;-64
2022/12/25 00:53:19;;;;;;;;;;;5.10;99.90;;;;;;5077234;28;19944;-64
2022/12/25 00:55:49;;;;;;;;;;;5.20;99.90;;;;;;5076929;28;19916;-64
2022/12/25 00:58:14;;;;;;;;;;;5.20;99.90;;;;;;5077208;28;19909;-64
2022/12/25 01:00:40;;;;;;;;;;;5.30;99.90;;;;;;5077074;28;19915;-64
2022/12/25 01:03:05;;;;;;;;;;;5.40;99.90;;;;;;5077107;28;19909;-64
2022/12/25 01:05:30;;;;;;;;;;;5.50;99.90;;;;;;5076758;28;19916;-64
2022/12/25 01:07:56;;;;;;;;;;;5.60;99.90;;;;;;5076732;28;20302;-64
2022/12/25 01:10:21;;;;;;;;;;;5.60;99.90;;;;;;5076659;28;20086;-65
2022/12/25 01:12:47;;;;;;;;;;;5.60;99.90;;;;;;5076746;28;19916;-64
2022/12/25 01:15:13;;;;;;;;;;;5.60;99.90;;;;;;5076550;28;19935;-64
2022/12/25 01:17:39;;;;;;;;;;;5.60;99.90;;;;;;5076839;28;20369;-64
2022/12/25 01:20:04;;;;;;;;;;;5.60;99.90;;;;;;5076441;28;19915;-64
2022/12/25 01:22:32;;;;;;;;;;;5.60;99.90;;;;;;5076752;28;19919;-64
2022/12/25 01:24:58;;;;;;;;;;;5.70;99.90;;;;;;5058509;28;19908;-64
2022/12/25 01:27:23;;;;;;;;;;;5.70;99.90;;;;;;5076641;28;19919;-64
2022/12/25 01:29:49;;;;;;;;;;;5.70;99.90;;;;;;5076371;28;19908;-64
2022/12/25 01:32:14;;;;;;;;;;;5.70;99.90;;;;;;5076220;28;19973;-64
2022/12/25 01:34:40;;;;;;;;;;;5.70;99.90;;;;;;5076233;28;19916;-64
2022/12/25 01:37:06;;;;;;;;;;;5.70;99.90;;;;;;5076214;28;19915;-64
2022/12/25 01:39:31;;;;;;;;;;;5.80;99.90;;;;;;5076402;28;19999;-64
2022/12/25 01:41:57;;;;;;;;;;;5.90;99.90;;;;;;5076121;28;19908;-64
2022/12/25 01:44:40;;;;;;;;;;;5.90;99.90;;;;;;5075689;28;19916;-64
2022/12/25 01:47:06;;;;;;;;;;;6.00;99.90;;;;;;5076082;28;19912;-64
2022/12/25 01:49:34;;;;;;;;;;;5.90;99.90;;;;;;5076014;28;20370;-64
2022/12/25 01:52:04;;;;;;;;;;;6.00;99.90;;;;;;5075890;28;19923;-64
2022/12/25 01:54:32;;;;;;;;;;;6.10;99.90;;;;;;5076150;28;19908;-64
2022/12/25 01:56:59;;;;;;;;;;;6.10;99.90;;;;;;5076035;28;19915;-64
2022/12/25 01:59:25;;;;;;;;;;;6.30;99.90;;;;;;5075817;28;19912;-64
2022/12/25 02:01:50;;;;;;;;;;;6.30;99.90;;;;;;5075734;28;19909;-64
2022/12/25 02:04:37;;;;;;;;;;;6.30;99.90;;;;;;5075999;28;19916;-64
2022/12/25 02:07:05;;;;;;;;;;;6.30;99.90;;;;;;5075671;28;20003;-64
2022/12/25 02:09:31;;;;;;;;;;;6.30;99.90;;;;;;5075876;28;19908;-64
2022/12/25 02:11:56;;;;;;;;;;;6.40;99.90;;;;;;5075368;28;20290;-64
2022/12/25 02:14:22;;;;;;;;;;;6.50;99.90;;;;;;5075783;28;19964;-65
2022/12/25 02:16:51;;;;;;;;;;;6.50;99.90;;;;;;5075515;28;20002;-64
2022/12/25 02:19:28;;;;;;;;;;;6.40;99.90;;;;;;5075681;28;19915;-64
2022/12/25 02:22:13;;;;;;;;;;;6.50;99.90;;;;;;5075353;28;19920;-65
2022/12/25 02:24:51;;;;;;;;;;;6.50;99.90;;;;;;5075122;28;19930;-64
2022/12/25 02:27:26;;;;;;;;;;;6.50;99.90;;;;;;5075451;28;19943;-64
2022/12/25 02:30:04;;;;;;;;;;;6.50;99.90;;;;;;5075445;28;19916;-64
2022/12/25 02:32:32;;;;;;;;;;;6.50;99.90;;;;;;5075085;28;19913;-64
2022/12/25 02:35:04;;;;;;;;;;;6.50;99.90;;;;;;5075302;28;19908;-64
2022/12/25 02:37:34;;;;;;;;;;;6.50;99.90;;;;;;5075058;28;19909;-64
2022/12/25 02:40:05;;;;;;;;;;;6.60;99.90;;;;;;5074977;28;19919;-64
2022/12/25 03:07:39;;;;;;;;;;;6.80;99.90;;;;;;5074287;28;19931;-64
2022/12/25 03:12:55;;;;;;;;;;;6.80;99.90;;;;;;5074281;28;19952;-64
2022/12/25 03:18:10;;;;;;;;;;;6.90;99.90;;;;;;5074069;28;19908;-64
2022/12/25 03:28:55;;;;;;;;;;;6.90;99.90;;;;;;5073889;28;20294;-64
2022/12/25 03:31:25;;;;;;;;;;;7.00;99.90;;;;;;5073973;28;19912;-64
2022/12/25 04:37:59;;;;;;;;;;;7.20;99.90;;;;;;5069728;28;20013;-63
2022/12/25 04:40:24;;;;;;;;;;;7.20;99.90;;;;;;5072525;28;20043;-64
2022/12/25 04:42:52;;;;;;;;;;;7.20;99.90;;;;;;5090384;28;19908;-63
2022/12/25 04:45:18;;;;;;;;;;;7.20;99.90;;;;;;5090052;28;19915;-63
2022/12/25 04:47:43;;;;;;;;;;;7.20;99.90;;;;;;5090003;28;19912;-63
2022/12/25 04:50:09;;;;;;;;;;;7.20;99.90;;;;;;5089911;28;20267;-63
2022/12/25 04:52:36;;;;;;;;;;;7.30;99.90;;;;;;5083570;28;20003;-63
2022/12/25 04:55:01;;;;;;;;;;;7.30;99.90;;;;;;5076662;28;20354;-63
2022/12/25 04:57:27;;;;;;;;;;;7.30;99.90;;;;;;5076563;28;19915;-63
2022/12/25 04:59:52;;;;;;;;;;;7.30;99.90;;;;;;5076285;28;19919;-63
2022/12/25 05:02:17;;;;;;;;;;;7.30;99.90;;;;;;5076478;28;19913;-63
2022/12/25 05:04:43;;;;;;;;;;;7.20;99.90;;;;;;5076486;28;19962;-63
2022/12/25 05:07:08;;;;;;;;;;;7.20;99.90;;;;;;5076205;28;19932;-63
2022/12/25 05:09:34;;;;;;;;;;;7.30;99.90;;;;;;5076360;28;19908;-63
2022/12/25 05:11:59;;;;;;;;;;;7.30;99.90;;;;;;5076299;28;20263;-63
2022/12/25 05:14:25;;;;;;;;;;;7.30;99.90;;;;;;5076306;28;19908;-64
2022/12/25 05:16:50;;;;;;;;;;;7.30;99.90;;;;;;5075987;28;20358;-63
2022/12/25 05:19:16;;;;;;;;;;;7.30;99.90;;;;;;5075932;28;19912;-63
2022/12/25 05:21:41;;;;;;;;;;;7.20;99.90;;;;;;5076103;28;19913;-63
2022/12/25 05:24:07;;;;;;;;;;;7.20;99.90;;;;;;5075818;28;20003;-63
2022/12/25 05:26:32;;;;;;;;;;;7.30;99.90;;;;;;5076073;28;19943;-63
2022/12/25 05:28:57;;;;;;;;;;;7.30;99.90;;;;;;5075827;28;20453;-63
2022/12/25 05:31:23;;;;;;;;;;;7.30;99.90;;;;;;5075707;28;19909;-63
2022/12/25 05:33:50;;;;;;;;;;;7.40;99.90;;;;;;5075941;28;19908;-63
2022/12/25 05:36:16;;;;;;;;;;;7.40;99.90;;;;;;5075651;28;20258;-63
2022/12/25 05:38:41;;;;;;;;;;;7.40;99.90;;;;;;5075601;28;19934;-63
2022/12/25 05:41:07;;;;;;;;;;;7.30;99.90;;;;;;5075243;28;19921;-63
2022/12/25 05:43:32;;;;;;;;;;;7.30;99.90;;;;;;5075489;28;19912;-63
2022/12/25 05:46:04;;;;;;;;;;;7.20;99.90;;;;;;5075693;28;19909;-63
2022/12/25 05:48:29;;;;;;;;;;;7.10;99.90;;;;;;5075665;28;19908;-63
2022/12/25 05:50:55;;;;;;;;;;;7.10;99.90;;;;;;5075377;28;20415;-63
2022/12/25 05:53:20;;;;;;;;;;;7.00;99.90;;;;;;5075314;28;20344;-63
2022/12/25 05:55:45;;;;;;;;;;;7.00;99.90;;;;;;5075507;28;19916;-63
2022/12/25 05:58:12;;;;;;;;;;;6.90;99.90;;;;;;5075434;28;19915;-63
2022/12/25 06:00:38;;;;;;;;;;;6.90;99.90;;;;;;5057547;28;19919;-63
2022/12/25 06:03:03;;;;;;;;;;;6.80;99.90;;;;;;5075321;28;19944;-63
2022/12/25 06:05:29;;;;;;;;;;;6.90;99.90;;;;;;5074340;28;19962;-63
2022/12/25 06:07:55;;;;;;;;;;;6.90;99.90;;;;;;5075251;28;19909;-63
2022/12/25 06:10:20;;;;;;;;;;;7.00;99.90;;;;;;5075230;28;19908;-63
2022/12/25 06:12:46;;;;;;;;;;;7.00;99.90;;;;;;5074849;28;20358;-63
2022/12/25 06:15:11;;;;;;;;;;;7.00;99.90;;;;;;5075097;28;19995;-63
2022/12/25 06:17:37;;;;;;;;;;;7.00;99.90;;;;;;5074772;28;19954;-63
2022/12/25 06:20:02;;;;;;;;;;;7.00;99.90;;;;;;5074715;28;20366;-63
2022/12/25 06:22:28;;;;;;;;;;;7.10;99.90;;;;;;5074875;28;19912;-63
2022/12/25 06:24:54;;;;;;;;;;;7.00;99.90;;;;;;5074661;28;19915;-63
2022/12/25 06:27:19;;;;;;;;;;;6.90;99.90;;;;;;5074611;28;19908;-63
2022/12/25 06:29:45;;;;;;;;;;;7.00;99.90;;;;;;5074778;28;19947;-63
2022/12/25 06:32:10;;;;;;;;;;;7.00;99.90;;;;;;5074523;28;19993;-63
2022/12/25 06:34:36;;;;;;;;;;;7.00;99.90;;;;;;5074430;28;20267;-63
2022/12/25 06:37:01;;;;;;;;;;;7.00;99.90;;;;;;5074429;28;19909;-63
2022/12/25 06:39:27;;;;;;;;;;;6.80;99.90;;;;;;5074403;28;19908;-64
2022/12/25 06:41:52;;;;;;;;;;;6.90;99.90;;;;;;5074091;28;19931;-63
2022/12/25 06:44:17;;;;;;;;;;;6.90;99.90;;;;;;5074534;28;19909;-63
2022/12/25 06:46:43;;;;;;;;;;;6.90;99.90;;;;;;5074266;28;19952;-63
2022/12/25 06:49:08;;;;;;;;;;;6.80;99.90;;;;;;5074437;28;19908;-63
2022/12/25 06:51:34;;;;;;;;;;;6.80;99.90;;;;;;5074153;28;19908;-63
2022/12/25 06:54:02;;;;;;;;;;;6.90;99.90;;;;;;5074153;28;19916;-63
2022/12/25 06:56:28;;;;;;;;;;;6.90;99.90;;;;;;5074117;28;19909;-63
2022/12/25 06:58:56;;;;;;;;;;;7.00;99.90;;;;;;5073998;28;19909;-63
2022/12/25 07:01:27;;;;;;;;;;;6.90;99.90;;;;;;5073932;28;19919;-64
2022/12/25 07:03:54;;;;;;;;;;;6.90;99.90;;;;;;5073961;28;19913;-64
2022/12/25 07:06:20;;;;;;;;;;;6.90;99.90;;;;;;5073947;28;19908;-64
2022/12/25 07:08:45;;;;;;;;;;;7.00;99.90;;;;;;5073932;28;19993;-64
2022/12/25 07:11:11;;;;;;;;;;;7.00;99.90;;;;;;5073874;28;20003;-64
2022/12/25 07:13:36;;;;;;;;;;;7.10;99.90;;;;;;5073859;28;19915;-64
2022/12/25 07:16:03;;;;;;;;;;;7.10;99.90;;;;;;5073623;28;19919;-64
2022/12/25 07:18:29;;;;;;;;;;;7.10;99.90;;;;;;5074052;28;19960;-64
2022/12/25 07:20:54;;;;;;;;;;;7.20;99.90;;;;;;5073675;28;19955;-64
2022/12/25 07:23:20;;;;;;;;;;;7.20;99.90;;;;;;5073749;28;19912;-64
2022/12/25 07:25:53;;;;;;;;;;;7.10;99.90;;;;;;5073671;28;20326;-64
2022/12/25 07:28:19;;;;;;;;;;;7.20;99.90;;;;;;5073677;28;19913;-64
2022/12/25 07:30:44;;;;;;;;;;;7.20;99.90;;;;;;5073869;28;19908;-64
2022/12/25 07:33:10;;;;;;;;;;;7.20;99.90;;;;;;5073890;28;19912;-64
2022/12/25 07:35:36;;;;;;;;;;;7.20;99.90;;;;;;5073632;28;19908;-64
2022/12/25 07:38:01;;;;;;;;;;;7.30;99.90;;;;;;5073557;28;19915;-64
2022/12/25 07:40:26;;;;;;;;;;;7.30;99.90;;;;;;5073334;28;19923;-64
2022/12/25 07:42:52;;;;;;;;;;;7.30;99.90;;;;;;5073544;28;19967;-64
2022/12/25 07:45:17;;;;;;;;;;;7.30;99.90;;;;;;5073799;28;19909;-64
2022/12/25 07:47:43;;;;;;;;;;;7.40;99.90;;;;;;5073740;28;20285;-64
2022/12/25 07:50:09;;;;;;;;;;;7.50;99.90;;;;;;5073429;28;19950;-64
2022/12/25 07:52:34;;;;;;;;;;;7.50;99.90;;;;;;5073417;28;19909;-64
2022/12/25 07:55:00;;;;;;;;;;;7.70;99.90;;;;;;5073698;28;19912;-64
2022/12/25 07:57:25;;;;;;;;;;;7.70;99.90;;;;;;5073397;28;20428;-64
2022/12/25 07:59:50;;;;;;;;;;;7.70;99.90;;;;;;5073626;28;19919;-64
2022/12/25 08:02:16;;;;;;;;;;;7.70;99.90;;;;;;5073265;28;19913;-64
2022/12/25 08:04:41;;;;;;;;;;;7.80;99.90;;;;;;5073585;28;20347;-64
2022/12/25 08:07:07;;;;;;;;;;;7.80;99.90;;;;;;5073258;28;20293;-64
2022/12/25 08:09:33;;;;;;;;;;;7.90;99.90;;;;;;5073234;28;19920;-64
2022/12/25 08:11:59;;;;;;;;;;;7.80;99.90;;;;;;5073453;28;19916;-64
2022/12/25 08:14:24;;;;;;;;;;;7.80;99.90;;;;;;5073399;28;19909;-64
2022/12/25 08:16:50;;;;;;;;;;;7.90;99.90;;;;;;5073165;28;19958;-64
2022/12/25 08:19:15;;;;;;;;;;;7.80;99.90;;;;;;5073396;28;20013;-64
2022/12/25 08:21:41;;;;;;;;;;;7.80;99.90;;;;;;5073072;28;19912;-64
2022/12/25 08:24:06;;;;;;;;;;;7.90;99.90;;;;;;5073079;28;20014;-64
2022/12/25 08:26:32;;;;;;;;;;;7.90;99.90;;;;;;5073100;28;19912;-64
2022/12/25 08:28:57;;;;;;;;;;;7.90;99.90;;;;;;5076237;28;20362;-64
2022/12/25 08:31:24;;;;;;;;;;;7.80;99.90;;;;;;5076817;28;20284;-64
2022/12/25 08:33:52;;;;;;;;;;;7.60;99.90;;;;;;5076746;28;19908;-65
2022/12/25 08:36:18;;;;;;;;;;;7.60;99.90;;;;;;5076761;28;19971;-64
2022/12/25 08:38:44;;;;;;;;;;;7.70;99.90;;;;;;5076933;28;19909;-64
2022/12/25 08:41:10;;;;;;;;;;;7.70;99.90;;;;;;5076467;28;20289;-64
2022/12/25 08:43:36;;;;;;;;;;;7.80;99.90;;;;;;5076622;28;19908;-64
2022/12/25 08:46:02;;;;;;;;;;;7.80;99.90;;;;;;5058868;28;19934;-64
2022/12/25 08:48:27;;;;;;;;;;;7.90;99.90;;;;;;5076493;28;19913;-64
2022/12/25 08:50:53;;;;;;;;;;;7.90;99.90;;;;;;5076472;28;19908;-64
2022/12/25 08:53:19;;;;;;;;;;;8.00;99.90;;;;;;5076703;28;19913;-64
2022/12/25 08:55:45;;;;;;;;;;;8.00;99.90;;;;;;5076333;28;19909;-64
2022/12/25 08:58:10;;;;;;;;;;;8.00;99.90;;;;;;5058414;28;19908;-64
2022/12/25 09:00:36;;;;;;;;;;;8.00;99.90;;;;;;5076192;28;19913;-64
2022/12/25 09:03:02;;;;;;;;;;;8.00;99.90;;;;;;5076226;28;19913;-64
2022/12/25 09:05:27;;;;;;;;;;;8.00;99.90;;;;;;5076476;28;19909;-64
2022/12/25 09:07:53;;;;;;;;;;;8.00;99.90;;;;;;5076495;28;19908;-64
2022/12/25 09:10:18;;;;;;;;;;;8.00;99.90;;;;;;5076154;28;19945;-64
2022/12/25 09:12:44;;;;;;;;;;;8.00;99.90;;;;;;5076164;28;19915;-64
2022/12/25 09:15:10;;;;;;;;;;;8.00;99.90;;;;;;5076098;28;19950;-64
2022/12/25 09:17:35;;;;;;;;;;;8.00;99.90;;;;;;5076103;28;20337;-64
2022/12/25 09:20:01;;;;;;;;;;;8.00;99.90;;;;;;5058077;28;19916;-64
2022/12/25 09:22:26;;;;;;;;;;;8.00;99.90;;;;;;5075899;28;19920;-64
2022/12/25 09:24:52;;;;;;;;;;;8.10;99.90;;;;;;5075837;28;19913;-64
2022/12/25 09:27:17;;;;;;;;;;;8.10;99.90;;;;;;5075823;28;19908;-64
2022/12/25 09:29:43;;;;;;;;;;;8.10;99.90;;;;;;5075766;28;20370;-64
2022/12/25 09:32:08;;;;;;;;;;;8.00;99.90;;;;;;5076005;28;19909;-64
2022/12/25 09:34:37;;;;;;;;;;;8.00;99.90;;;;;;5075918;28;19908;-64
2022/12/25 09:37:02;;;;;;;;;;;8.00;99.90;;;;;;5058147;28;19927;-64
2022/12/25 09:39:28;;;;;;;;;;;8.10;99.90;;;;;;5075508;28;19912;-64
2022/12/25 09:41:57;;;;;;;;;;;8.20;99.90;;;;;;5075393;28;19924;-64
2022/12/25 09:44:34;;;;;;;;;;;8.20;99.90;;;;;;5075594;28;19913;-64
2022/12/25 09:47:05;;;;;;;;;;;8.30;99.90;;;;;;5058885;28;19923;-64
2022/12/25 09:52:12;;;;;;;;;;;8.40;99.90;;;;;;5071171;28;19919;-63
2022/12/25 09:54:40;;;;;;;;;;;8.50;99.90;;;;;;5071026;28;19966;-63
2022/12/25 09:57:09;;;;;;;;;;;8.50;99.90;;;;;;5070955;28;19909;-63
2022/12/25 09:59:35;;;;;;;;;;;8.50;99.90;;;;;;5071121;28;19909;-64
2022/12/25 10:02:20;;;;;;;;;;;8.50;99.90;;;;;;5070940;28;19909;-64
2022/12/25 10:04:55;;;;;;;;;;;8.50;99.90;;;;;;5070820;28;20316;-64
2022/12/25 10:07:40;;;;;;;;;;;8.50;99.90;;;;;;5086015;28;19913;-62
2022/12/25 10:10:26;;;;;;;;;;;8.50;99.90;;;;;;5070553;28;20020;-63
2022/12/25 10:13:11;;;;;;;;;;;8.50;99.90;;;;;;5070527;28;19913;-63
2022/12/25 10:15:49;;;;;;;;;;;8.50;99.90;;;;;;5070589;28;19916;-62
2022/12/25 10:18:35;;;;;;;;;;;8.60;99.90;;;;;;5070812;28;20335;-63
2022/12/25 10:21:02;;;;;;;;;;;8.60;99.90;;;;;;5070435;28;20426;-63
2022/12/25 10:23:31;;;;;;;;;;;8.60;99.90;;;;;;5070504;28;20396;-63
2022/12/25 10:25:56;;;;;;;;;;;8.60;99.90;;;;;;5070432;28;19909;-63
2022/12/25 10:28:35;;;;;;;;;;;8.60;99.90;;;;;;5070341;28;19954;-63
2022/12/25 10:31:04;;;;;;;;;;;8.60;99.90;;;;;;5069003;28;19917;-64
2022/12/25 10:33:30;;;;;;;;;;;8.60;99.90;;;;;;5070538;28;20019;-63
2022/12/25 10:35:55;;;;;;;;;;;8.70;99.90;;;;;;5070466;28;20031;-63
2022/12/25 10:38:21;;;;;;;;;;;8.70;99.90;;;;;;5070159;28;19998;-63
2022/12/25 10:40:59;;;;;;;;;;;8.70;99.90;;;;;;5070143;28;20278;-64
2022/12/25 10:43:30;;;;;;;;;;;8.70;99.90;;;;;;5070204;28;19909;-65
2022/12/25 10:45:55;;;;;;;;;;;8.80;99.90;;;;;;5070233;28;20282;-64
2022/12/25 10:48:25;;;;;;;;;;;8.80;99.90;;;;;;5069891;28;19999;-65
2022/12/25 10:50:50;;;;;;;;;;;8.90;99.90;;;;;;5079384;28;20007;-65
2022/12/25 10:53:19;;;;;;;;;;;8.90;99.90;;;;;;5090152;28;19951;-65
2022/12/25 10:55:53;;;;;;;;;;;9.00;99.90;;;;;;5090101;28;19954;-65
2022/12/25 10:58:19;;;;;;;;;;;9.10;99.90;;;;;;5090244;28;19909;-65
2022/12/25 11:00:50;;;;;;;;;;;9.10;99.90;;;;;;5071938;28;20381;-65
2022/12/25 11:03:24;;;;;;;;;;;9.20;99.90;;;;;;5077834;28;20033;-65
2022/12/25 11:05:50;;;;;;;;;;;9.20;99.90;;;;;;5076333;28;19962;-65
2022/12/25 11:08:19;;;;;;;;;;;9.20;99.90;;;;;;5076314;28;19954;-65
2022/12/25 11:10:50;;;;;;;;;;;9.20;99.90;;;;;;5076443;28;19913;-65
2022/12/25 11:13:17;;;;;;;;;;;9.20;99.90;;;;;;5058297;28;19958;-65
2022/12/25 11:15:44;;;;;;;;;;;9.20;99.90;;;;;;5076163;28;19909;-65
2022/12/25 11:18:26;;;;;;;;;;;9.20;99.90;;;;;;5076231;28;19908;-65
2022/12/25 11:20:56;;;;;;;;;;;9.20;99.90;;;;;;5076064;28;19944;-65
2022/12/25 11:23:23;;;;;;;;;;;9.20;99.90;;;;;;5076033;28;19950;-65
2022/12/25 11:25:57;;;;;;;;;;;9.20;99.90;;;;;;5076298;28;19909;-65
2022/12/25 11:28:23;;;;;;;;;;;9.20;99.90;;;;;;5058308;28;19909;-64
2022/12/25 11:30:52;;;;;;;;;;;9.20;99.90;;;;;;5076029;28;19912;-64
2022/12/25 11:33:19;;;;;;;;;;;9.20;99.90;;;;;;5076105;28;19931;-65
2022/12/25 11:35:48;;;;;;;;;;;9.20;99.90;;;;;;5076011;28;19915;-65
2022/12/25 11:38:14;;;;;;;;;;;9.30;99.90;;;;;;5076003;28;19908;-64
2022/12/25 11:40:57;;;;;;;;;;;9.20;99.90;;;;;;5075935;28;20018;-65
2022/12/25 11:43:25;;;;;;;;;;;9.30;99.90;;;;;;5075568;28;19908;-65
2022/12/25 11:45:54;;;;;;;;;;;9.30;99.90;;;;;;5075579;28;19920;-65
2022/12/25 11:48:23;;;;;;;;;;;9.30;99.90;;;;;;5057652;28;20003;-65
2022/12/25 11:50:51;;;;;;;;;;;9.30;99.90;;;;;;5075294;28;19921;-65
2022/12/25 11:53:28;;;;;;;;;;;9.30;99.90;;;;;;5075405;28;20006;-65
2022/12/25 11:55:57;;;;;;;;;;;9.30;99.90;;;;;;5075606;28;19908;-65
2022/12/25 11:58:27;;;;;;;;;;;9.30;99.90;;;;;;5057529;28;19909;-65
2022/12/25 12:00:54;;;;;;;;;;;9.30;99.90;;;;;;5075284;28;20325;-65
2022/12/25 12:03:23;;;;;;;;;;;9.20;99.90;;;;;;5075489;28;19970;-65
2022/12/25 12:06:05;;;;;;;;;;;9.20;99.90;;;;;;5075451;28;20375;-65
2022/12/25 12:08:32;;;;;;;;;;;9.30;99.90;;;;;;5075146;28;20337;-65
2022/12/25 12:11:15;;;;;;;;;;;9.20;99.90;;;;;;5075076;28;20289;-65
2022/12/25 12:13:47;;;;;;;;;;;9.30;99.90;;;;;;5056501;28;19909;-65
2022/12/25 12:16:12;;;;;;;;;;;9.30;99.90;;;;;;5075282;28;19909;-65
2022/12/25 12:18:38;;;;;;;;;;;9.30;99.90;;;;;;5075126;28;19908;-65
2022/12/25 12:21:05;;;;;;;;;;;9.30;99.90;;;;;;5074918;28;19909;-65
2022/12/25 12:23:34;;;;;;;;;;;9.30;99.90;;;;;;5075260;28;19999;-65
2022/12/25 12:26:01;;;;;;;;;;;9.30;99.90;;;;;;5075085;28;19916;-65
2022/12/25 12:28:28;;;;;;;;;;;9.30;99.90;;;;;;5075079;28;19958;-65
2022/12/25 12:30:56;;;;;;;;;;;9.30;99.90;;;;;;5074718;28;19948;-65
2022/12/25 12:33:22;;;;;;;;;;;9.20;99.90;;;;;;5074605;28;20007;-65
2022/12/25 12:35:48;;;;;;;;;;;9.20;99.90;;;;;;5074632;28;20007;-65
2022/12/25 12:38:15;;;;;;;;;;;9.20;99.90;;;;;;5074805;28;20348;-65
2022/12/25 12:40:42;;;;;;;;;;;9.20;99.90;;;;;;5074787;28;19919;-65
2022/12/25 12:43:27;;;;;;;;;;;9.20;99.90;;;;;;5074752;28;20297;-65
2022/12/25 12:45:57;;;;;;;;;;;9.20;99.90;;;;;;5074661;28;19915;-65
2022/12/25 12:48:25;;;;;;;;;;;9.30;99.90;;;;;;5074343;28;19915;-65
2022/12/25 12:51:00;;;;;;;;;;;9.30;99.90;;;;;;5074119;28;19989;-64
2022/12/25 12:53:27;;;;;;;;;;;9.20;99.90;;;;;;5074281;28;19938;-64
2022/12/25 12:55:52;;;;;;;;;;;9.20;99.90;;;;;;5074222;28;20015;-64
2022/12/25 12:58:34;;;;;;;;;;;9.20;99.90;;;;;;5074460;28;20395;-64
2022/12/25 13:01:19;;;;;;;;;;;9.20;99.90;;;;;;5074421;28;20277;-64
2022/12/25 13:06:31;;;;;;;;;;;9.20;99.90;;;;;;5071154;28;19913;-65
2022/12/25 13:09:05;;;;;;;;;;;9.20;99.90;;;;;;5070953;28;19963;-65
2022/12/25 13:11:34;;;;;;;;;;;9.20;99.90;;;;;;5071206;28;19908;-65
2022/12/25 13:14:00;;;;;;;;;;;9.20;99.90;;;;;;5071133;28;19909;-65
2022/12/25 13:16:29;;;;;;;;;;;9.10;99.90;;;;;;5070806;28;19909;-65
2022/12/25 13:18:55;;;;;;;;;;;9.20;99.90;;;;;;5071008;28;19934;-65
2022/12/25 13:21:22;;;;;;;;;;;9.20;99.90;;;;;;5070747;28;20437;-65
2022/12/25 13:23:54;;;;;;;;;;;9.20;99.90;;;;;;5070962;28;20003;-65
2022/12/25 13:26:19;;;;;;;;;;;9.20;99.90;;;;;;5069400;28;19920;-65
2022/12/25 13:28:45;;;;;;;;;;;9.30;99.90;;;;;;5070599;28;20289;-65
2022/12/25 13:33:56;;;;;;;;;;;9.30;99.90;;;;;;5091382;27;19912;-65
2022/12/25 13:36:23;;;;;;;;;;;9.20;99.90;;;;;;5091273;28;19912;-65
2022/12/25 13:38:50;;;;;;;;;;;9.20;99.90;;;;;;5091086;28;19994;-65
2022/12/25 13:44:09;;;;;;;;;;;9.20;99.90;;;;;;5090958;28;19908;-65
2022/12/25 13:46:39;;;;;;;;;;;9.20;99.90;;;;;;5091015;28;19908;-66
2022/12/25 13:49:12;;;;;;;;;;;9.20;99.90;;;;;;5091017;28;19908;-66
2022/12/25 13:51:40;;;;;;;;;;;9.20;99.90;;;;;;5091099;28;19968;-66
2022/12/25 13:54:05;;;;;;;;;;;9.20;99.90;;;;;;5090868;28;19912;-66
2022/12/25 13:56:33;;;;;;;;;;;9.20;99.90;;;;;;5089660;28;19918;-66
2022/12/25 13:58:58;;;;;;;;;;;9.20;99.90;;;;;;5089661;28;19915;-66
2022/12/25 14:01:24;;;;;;;;;;;9.20;99.90;;;;;;5090766;28;19908;-67
2022/12/25 14:03:49;;;;;;;;;;;9.20;99.90;;;;;;5123610;28;20374;-66
2022/12/25 14:06:18;;;;;;;;;;;9.20;99.90;;;;;;5090845;28;19908;-66
2022/12/25 14:08:43;;;;;;;;;;;9.20;99.90;;;;;;5090822;28;20419;-66
2022/12/25 14:11:10;;;;;;;;;;;9.20;99.90;;;;;;5090534;28;19908;-66
2022/12/25 14:13:37;;;;;;;;;;;9.20;99.90;;;;;;5090582;28;19943;-66
2022/12/25 14:16:03;;;;;;;;;;;9.20;99.90;;;;;;5123375;28;19958;-66
2022/12/25 14:18:29;;;;;;;;;;;9.20;99.90;;;;;;5090404;28;19915;-66
2022/12/25 14:21:04;;;;;;;;;;;9.20;99.90;;;;;;5090359;28;19908;-66
2022/12/25 14:23:40;;;;;;;;;;;9.20;99.90;;;;;;5090406;28;19917;-66
2022/12/25 14:26:05;;;;;;;;;;;9.30;99.90;;;;;;5090161;28;20007;-66
2022/12/25 14:28:33;;;;;;;;;;;9.30;99.90;;;;;;5088942;28;19952;-66
2022/12/25 14:30:59;;;;;;;;;;;9.30;99.90;;;;;;5090476;28;20370;-66
2022/12/25 14:33:25;;;;;;;;;;;9.30;99.90;;;;;;5107056;28;20273;-66
2022/12/25 14:35:51;;;;;;;;;;;9.30;99.90;;;;;;5110432;28;19908;-66
2022/12/25 14:38:26;;;;;;;;;;;9.30;99.90;;;;;;5110617;28;19915;-66
2022/12/25 14:41:11;;;;;;;;;;;9.30;99.90;;;;;;5110579;28;19912;-66
2022/12/25 14:43:37;;;;;;;;;;;9.30;99.90;;;;;;5105453;28;19908;-66
2022/12/25 14:46:05;;;;;;;;;;;9.30;99.90;;;;;;5096624;28;19915;-66
2022/12/25 14:48:31;;;;;;;;;;;9.30;99.90;;;;;;5096598;28;19962;-66
2022/12/25 14:51:00;;;;;;;;;;;9.40;99.90;;;;;;5096556;28;19998;-66
2022/12/25 14:53:32;;;;;;;;;;;9.30;99.90;;;;;;5078435;28;19912;-66
2022/12/25 14:55:57;;;;;;;;;;;9.30;99.90;;;;;;5096695;28;20316;-66
2022/12/25 14:58:26;;;;;;;;;;;9.30;99.90;;;;;;5096421;28;19908;-66
2022/12/25 15:00:53;;;;;;;;;;;9.20;99.90;;;;;;5096621;28;20327;-66
2022/12/25 15:03:23;;;;;;;;;;;9.20;99.90;;;;;;5096243;28;19912;-66
2022/12/25 15:06:06;;;;;;;;;;;9.20;99.90;;;;;;5096533;28;20374;-66
2022/12/25 15:08:32;;;;;;;;;;;9.20;99.90;;;;;;5096538;28;20319;-66
2022/12/25 15:10:58;;;;;;;;;;;9.30;99.90;;;;;;5096444;28;19908;-66
2022/12/25 15:13:25;;;;;;;;;;;9.20;99.90;;;;;;5096055;28;19965;-66
2022/12/25 15:16:10;;;;;;;;;;;9.20;99.90;;;;;;5096155;28;19976;-66
2022/12/25 15:18:38;;;;;;;;;;;9.20;99.90;;;;;;5095988;28;19908;-66
2022/12/25 15:21:04;;;;;;;;;;;9.20;99.90;;;;;;5061875;28;19908;-66
2022/12/25 15:23:30;;;;;;;;;;;9.20;99.90;;;;;;5096042;28;20277;-67
2022/12/25 15:25:55;;;;;;;;;;;9.10;99.90;;;;;;5077893;28;19926;-67
2022/12/25 15:28:21;;;;;;;;;;;9.10;99.90;;;;;;5096292;28;19913;-66
2022/12/25 15:30:48;;;;;;;;;;;9.10;99.90;;;;;;5096035;28;20007;-66
2022/12/25 15:33:14;;;;;;;;;;;9.10;99.90;;;;;;5095512;28;19920;-66
2022/12/25 15:35:42;;;;;;;;;;;9.10;99.90;;;;;;5095668;28;19909;-66
2022/12/25 15:38:08;;;;;;;;;;;9.10;99.90;;;;;;5095701;28;19955;-66
2022/12/25 15:40:34;;;;;;;;;;;9.10;99.90;;;;;;5095584;28;19958;-66
2022/12/25 15:42:59;;;;;;;;;;;9.10;99.90;;;;;;5095813;28;19908;-66
2022/12/25 15:45:26;;;;;;;;;;;9.10;99.90;;;;;;5095760;28;19991;-66
2022/12/25 15:47:52;;;;;;;;;;;9.10;99.90;;;;;;5095446;28;19912;-66
2022/12/25 15:50:18;;;;;;;;;;;9.20;99.90;;;;;;5095665;28;19915;-65
2022/12/25 15:52:44;;;;;;;;;;;9.20;99.90;;;;;;5095508;28;19912;-65
2022/12/25 15:55:09;;;;;;;;;;;9.20;99.90;;;;;;5094400;28;19953;-65
2022/12/25 15:57:36;;;;;;;;;;;9.10;99.90;;;;;;5095334;28;19998;-67
2022/12/25 16:00:03;;;;;;;;;;;9.20;99.90;;;;;;5095517;28;20281;-65
2022/12/25 16:02:28;;;;;;;;;;;9.10;99.90;;;;;;5095418;28;20001;-66
2022/12/25 16:04:54;;;;;;;;;;;9.20;99.90;;;;;;5095075;28;19975;-66
2022/12/25 16:07:21;;;;;;;;;;;9.10;99.90;;;;;;5095307;28;19908;-66
2022/12/25 16:09:47;;;;;;;;;;;9.10;99.90;;;;;;5095259;28;19934;-66
2022/12/25 16:12:12;;;;;;;;;;;9.10;99.90;;;;;;5095187;28;19916;-66
2022/12/25 16:14:38;;;;;;;;;;;9.10;99.90;;;;;;5094939;28;20376;-66
2022/12/25 16:17:04;;;;;;;;;;;9.10;99.90;;;;;;5094958;28;20003;-66
2022/12/25 16:19:30;;;;;;;;;;;9.10;99.90;;;;;;5094832;28;19908;-66
2022/12/25 16:21:55;;;;;;;;;;;9.10;99.90;;;;;;5094785;28;20280;-66
2022/12/25 16:24:21;;;;;;;;;;;9.10;99.90;;;;;;5094781;28;19912;-66
2022/12/25 16:26:46;;;;;;;;;;;9.10;99.90;;;;;;5094748;28;19908;-66
2022/12/25 16:29:12;;;;;;;;;;;9.00;99.90;;;;;;5094270;28;20388;-67